Time;durP1;ratioP1;P1;durP2;ratioP2;P2;SDS_P1;SDS_P2;PMS_P1;PMS_P2;Temp;Humidity;BMP_temperature;BMP_pressure;BME280_temperature;BME280_humidity;BME280_pressure;Samples;Min_cycle;Max_cycle;Signal;HPM_P1;HPM_P2
2021/03/10 00:01:10;;;;;;;37.77;18.67;;;-3.20;99.90;;;;;;5145888;28;20203;-72
2021/03/10 00:03:42;;;;;;;39.67;17.93;;;-3.20;99.90;;;;;;5145857;28;20193;-71
2021/03/10 00:06:13;;;;;;;41.67;18.30;;;-3.20;99.90;;;;;;5144713;28;20223;-72
2021/03/10 00:08:45;;;;;;;43.23;18.93;;;-3.20;99.90;;;;;;5146071;28;20200;-72
2021/03/10 00:11:16;;;;;;;41.20;18.97;;;-3.20;99.90;;;;;;5146004;28;20209;-74
2021/03/10 00:13:48;;;;;;;46.30;19.83;;;-3.20;99.90;;;;;;5146560;28;20196;-73
2021/03/10 00:19:56;;;;;;;39.53;19.10;;;-3.30;99.90;;;;;;5139002;28;20242;-72
2021/03/10 00:22:27;;;;;;;43.90;21.23;;;-3.40;99.90;;;;;;5144965;28;20553;-74
2021/03/10 00:24:59;;;;;;;44.60;19.43;;;-3.30;99.90;;;;;;5145796;28;20203;-72
2021/03/10 00:27:30;;;;;;;42.27;20.30;;;-3.40;99.90;;;;;;5145877;28;20578;-73
2021/03/10 00:30:07;;;;;;;44.87;21.30;;;-3.40;99.90;;;;;;5146418;28;20200;-72
2021/03/10 00:36:33;;;;;;;44.87;19.93;;;-3.50;99.90;;;;;;5149751;28;20223;-73
2021/03/10 00:39:05;;;;;;;47.33;20.87;;;-3.50;99.90;;;;;;5149959;28;20192;-72
2021/03/10 00:41:36;;;;;;;42.37;20.37;;;-3.50;99.90;;;;;;5149704;28;20206;-75
2021/03/10 00:44:08;;;;;;;43.97;20.67;;;-3.50;99.90;;;;;;5148856;28;20189;-73
2021/03/10 00:46:39;;;;;;;51.93;21.13;;;-3.50;99.90;;;;;;5148853;28;20224;-72
2021/03/10 00:49:11;;;;;;;51.80;22.67;;;-3.50;99.90;;;;;;5149986;28;20188;-74
2021/03/10 00:51:42;;;;;;;45.90;23.57;;;-3.50;99.90;;;;;;5149886;28;20196;-72
2021/03/10 00:54:14;;;;;;;46.20;22.00;;;-3.50;99.90;;;;;;5149386;28;20197;-71
2021/03/10 00:56:45;;;;;;;48.47;23.10;;;-3.50;99.90;;;;;;5149481;28;20208;-74
2021/03/10 00:59:17;;;;;;;46.40;20.97;;;-3.60;99.90;;;;;;5149723;28;20565;-72
2021/03/10 01:01:48;;;;;;;50.43;21.57;;;-3.60;99.90;;;;;;5149601;28;20212;-70
2021/03/10 01:04:20;;;;;;;52.63;23.07;;;-3.60;99.90;;;;;;5149966;28;20303;-73
2021/03/10 01:06:51;;;;;;;48.70;21.60;;;-3.60;99.90;;;;;;5149284;28;20224;-72
2021/03/10 01:09:23;;;;;;;48.87;21.50;;;-3.70;99.90;;;;;;5148995;28;20202;-72
2021/03/10 01:11:54;;;;;;;51.07;22.60;;;-3.60;99.90;;;;;;5149257;28;20582;-74
2021/03/10 01:14:25;;;;;;;45.03;21.97;;;-3.70;99.90;;;;;;5147930;28;20199;-72
2021/03/10 01:16:57;;;;;;;50.00;22.33;;;-3.70;99.90;;;;;;5149114;28;20193;-73
2021/03/10 01:19:31;;;;;;;49.37;22.17;;;-3.70;99.90;;;;;;5148693;28;20238;-73
2021/03/10 01:22:03;;;;;;;48.17;22.60;;;-3.70;99.90;;;;;;5148666;28;20201;-74
2021/03/10 01:24:35;;;;;;;49.90;23.27;;;-3.70;99.90;;;;;;5148696;28;20193;-68
2021/03/10 01:27:07;;;;;;;52.17;24.20;;;-3.70;99.90;;;;;;5148603;28;20600;-68
2021/03/10 01:29:39;;;;;;;52.70;23.63;;;-3.80;99.90;;;;;;5148965;28;20206;-68
2021/03/10 01:32:10;;;;;;;57.27;25.83;;;-3.80;99.90;;;;;;5148907;28;20628;-67
2021/03/10 01:34:42;;;;;;;62.90;25.83;;;-3.80;99.90;;;;;;5149467;28;20563;-67
2021/03/10 01:37:14;;;;;;;61.73;24.93;;;-3.80;99.90;;;;;;5148564;28;20207;-70
2021/03/10 01:39:45;;;;;;;56.63;25.07;;;-3.90;99.90;;;;;;5148810;28;20583;-69
2021/03/10 01:42:17;;;;;;;54.80;23.97;;;-3.90;99.90;;;;;;5148048;28;20196;-69
2021/03/10 01:44:49;;;;;;;67.10;26.67;;;-3.90;99.90;;;;;;5148364;28;20201;-68
2021/03/10 01:47:20;;;;;;;65.90;27.60;;;-4.00;99.90;;;;;;5148764;28;20220;-69
2021/03/10 01:49:52;;;;;;;65.77;27.33;;;-4.00;99.90;;;;;;5148743;28;20239;-69
2021/03/10 01:52:24;;;;;;;66.07;27.57;;;-4.00;99.90;;;;;;5148463;28;20197;-69
2021/03/10 01:54:56;;;;;;;78.90;29.90;;;-4.00;99.90;;;;;;5148484;28;20219;-69
2021/03/10 01:57:27;;;;;;;69.60;28.53;;;-4.10;99.90;;;;;;5148490;28;20197;-69
2021/03/10 01:59:59;;;;;;;78.60;29.57;;;-4.10;99.90;;;;;;5148352;28;20201;-68
2021/03/10 02:02:30;;;;;;;75.20;29.63;;;-4.10;99.90;;;;;;5148278;28;20200;-69
2021/03/10 02:05:03;;;;;;;73.53;29.57;;;-4.10;99.90;;;;;;5148239;28;20656;-68
2021/03/10 02:07:48;;;;;;;70.87;29.57;;;-4.20;99.90;;;;;;5147776;28;20227;-70
2021/03/10 02:10:37;;;;;;;67.50;28.37;;;-4.20;99.90;;;;;;5148154;28;20215;-69
2021/03/10 02:13:09;;;;;;;61.87;26.83;;;-4.20;99.90;;;;;;5148150;28;20219;-70
2021/03/10 02:15:54;;;;;;;54.30;26.50;;;-4.20;99.90;;;;;;5147789;28;20199;-68
2021/03/10 02:18:45;;;;;;;65.20;26.20;;;-4.30;99.90;;;;;;5147883;28;20228;-68
2021/03/10 02:21:31;;;;;;;61.43;26.27;;;-4.30;99.90;;;;;;5148226;28;20201;-67
2021/03/10 02:24:24;;;;;;;60.80;27.13;;;-4.30;99.90;;;;;;5148332;28;20192;-67
2021/03/10 02:27:33;;;;;;;57.43;26.80;;;-4.30;99.90;;;;;;5147486;28;20231;-69
2021/03/10 02:30:06;;;;;;;65.43;27.30;;;-4.30;99.90;;;;;;5147772;28;20557;-67
2021/03/10 02:36:35;;;;;;;78.30;31.97;;;-4.30;99.90;;;;;;5147421;28;20200;-69
2021/03/10 02:39:08;;;;;;;74.57;32.97;;;-4.30;99.90;;;;;;5147361;28;20197;-67
2021/03/10 02:41:41;;;;;;;78.13;31.20;;;-4.40;99.90;;;;;;5147477;28;20192;-68
2021/03/10 02:44:14;;;;;;;78.17;33.73;;;-4.40;99.90;;;;;;5147162;28;20200;-68
2021/03/10 02:46:46;;;;;;;72.70;33.57;;;-4.40;99.90;;;;;;5147649;28;20226;-67
2021/03/10 02:53:14;;;;;;;72.30;31.50;;;-4.50;99.90;;;;;;5146903;28;20179;-70
2021/03/10 02:55:45;;;;;;;83.13;33.20;;;-4.50;99.90;;;;;;5147866;28;20666;-69
2021/03/10 02:58:17;;;;;;;71.87;32.60;;;-4.60;99.90;;;;;;5147514;28;20207;-69
2021/03/10 03:00:49;;;;;;;75.80;32.60;;;-4.60;99.90;;;;;;5147383;28;20193;-68
2021/03/10 03:03:20;;;;;;;73.63;33.13;;;-4.60;99.90;;;;;;5147235;28;20197;-68
2021/03/10 03:05:52;;;;;;;78.63;33.50;;;-4.60;99.90;;;;;;5147033;28;20318;-68
2021/03/10 03:08:24;;;;;;;77.77;34.50;;;-4.70;99.90;;;;;;5146707;28;20212;-67
2021/03/10 03:10:56;;;;;;;81.80;34.83;;;-4.70;99.90;;;;;;5147057;28;20199;-68
2021/03/10 03:13:29;;;;;;;85.23;37.47;;;-4.70;99.90;;;;;;5147019;28;20642;-68
2021/03/10 03:16:03;;;;;;;81.13;36.50;;;-4.60;99.90;;;;;;5146925;28;20199;-69
2021/03/10 03:18:35;;;;;;;84.97;35.73;;;-4.60;99.90;;;;;;5146612;28;20202;-67
2021/03/10 03:21:06;;;;;;;81.63;36.20;;;-4.60;99.90;;;;;;5146544;28;20196;-68
2021/03/10 03:23:40;;;;;;;86.33;37.53;;;-4.60;99.90;;;;;;5146792;28;20193;-68
2021/03/10 03:26:16;;;;;;;80.97;36.20;;;-4.70;99.90;;;;;;5146632;28;20227;-69
2021/03/10 03:28:47;;;;;;;80.93;35.87;;;-4.70;99.90;;;;;;5146419;28;20203;-68
2021/03/10 03:31:20;;;;;;;77.83;35.77;;;-4.70;99.90;;;;;;5146750;28;20196;-69
2021/03/10 03:33:51;;;;;;;83.07;35.13;;;-4.70;99.90;;;;;;5146329;28;20203;-67
2021/03/10 03:36:24;;;;;;;80.90;35.70;;;-4.80;99.90;;;;;;5146566;28;20595;-68
2021/03/10 03:38:55;;;;;;;77.63;35.87;;;-4.80;99.90;;;;;;5146460;28;20196;-70
2021/03/10 03:41:27;;;;;;;76.97;35.17;;;-4.80;99.90;;;;;;5146165;28;20204;-68
2021/03/10 03:44:02;;;;;;;78.90;34.57;;;-4.80;99.90;;;;;;5146355;28;20278;-69
2021/03/10 03:46:34;;;;;;;74.37;34.03;;;-4.80;99.90;;;;;;5146382;28;20528;-71
2021/03/10 03:49:06;;;;;;;77.87;35.03;;;-4.80;99.90;;;;;;5146349;28;20206;-68
2021/03/10 03:51:37;;;;;;;77.73;34.90;;;-4.80;99.90;;;;;;5146377;28;20202;-68
2021/03/10 03:54:09;;;;;;;81.50;34.90;;;-4.80;99.90;;;;;;5146058;28;20196;-68
2021/03/10 03:56:40;;;;;;;81.63;35.10;;;-4.80;99.90;;;;;;5146318;28;20203;-67
2021/03/10 03:59:12;;;;;;;82.37;35.07;;;-4.80;99.90;;;;;;5146464;28;20199;-70
2021/03/10 04:01:43;;;;;;;78.53;35.13;;;-4.80;99.90;;;;;;5146520;28;20280;-70
2021/03/10 04:04:15;;;;;;;85.40;35.07;;;-4.80;99.90;;;;;;5145005;28;20188;-70
2021/03/10 04:06:50;;;;;;;77.83;33.30;;;-4.80;99.90;;;;;;5146071;28;20639;-71
2021/03/10 04:09:21;;;;;;;75.37;34.27;;;-4.80;99.90;;;;;;5146246;28;20550;-73
2021/03/10 04:11:53;;;;;;;84.43;36.07;;;-4.90;99.90;;;;;;5146238;28;20635;-69
2021/03/10 04:14:24;;;;;;;82.33;35.93;;;-4.90;99.90;;;;;;5146155;28;20192;-72
2021/03/10 04:16:55;;;;;;;82.63;35.63;;;-4.90;99.90;;;;;;5146018;28;20230;-71
2021/03/10 04:19:27;;;;;;;90.47;35.63;;;-4.90;99.90;;;;;;5139996;28;20236;-72
2021/03/10 04:21:59;;;;;;;76.70;34.07;;;-4.90;99.90;;;;;;5146038;28;20219;-70
2021/03/10 04:24:30;;;;;;;71.60;32.63;;;-4.90;99.90;;;;;;5146122;28;20579;-73
2021/03/10 04:27:02;;;;;;;82.80;35.17;;;-4.90;99.90;;;;;;5145727;28;20231;-75
2021/03/10 04:29:37;;;;;;;83.23;34.03;;;-4.90;99.90;;;;;;5145788;28;20206;-74
2021/03/10 04:32:10;;;;;;;75.30;32.57;;;-4.90;99.90;;;;;;5146204;28;20214;-73
2021/03/10 04:34:41;;;;;;;77.90;33.67;;;-4.90;99.90;;;;;;5145966;28;20211;-74
2021/03/10 04:37:13;;;;;;;82.43;34.73;;;-4.90;99.90;;;;;;5145676;28;20196;-73
2021/03/10 04:39:44;;;;;;;78.87;35.43;;;-4.90;99.90;;;;;;5145555;28;20212;-71
2021/03/10 04:42:16;;;;;;;82.57;36.73;;;-4.90;99.90;;;;;;5145525;28;20215;-72
2021/03/10 04:44:48;;;;;;;87.67;37.27;;;-4.90;99.90;;;;;;5160983;28;20204;-70
2021/03/10 04:47:19;;;;;;;83.27;36.13;;;-4.90;99.90;;;;;;5145858;28;20236;-72
2021/03/10 04:49:51;;;;;;;86.47;37.53;;;-4.90;99.90;;;;;;5146048;28;20203;-76
2021/03/10 04:52:25;;;;;;;81.93;36.73;;;-4.90;99.90;;;;;;5146225;28;20195;-76
2021/03/10 04:54:57;;;;;;;79.07;34.77;;;-5.00;99.90;;;;;;5145949;28;20203;-72
2021/03/10 04:57:28;;;;;;;79.60;33.30;;;-5.00;99.90;;;;;;5145736;28;20200;-73
2021/03/10 05:00:00;;;;;;;77.53;34.67;;;-5.00;99.90;;;;;;5146174;28;20289;-74
2021/03/10 05:02:32;;;;;;;75.13;33.30;;;-5.00;99.90;;;;;;5145661;28;20536;-72
2021/03/10 05:05:07;;;;;;;77.03;32.70;;;-5.00;99.90;;;;;;5145647;28;20563;-73
2021/03/10 05:07:38;;;;;;;66.00;29.57;;;-5.00;99.90;;;;;;5145570;28;20221;-72
2021/03/10 05:10:11;;;;;;;66.47;30.10;;;-5.00;99.90;;;;;;5144135;28;20195;-73
2021/03/10 05:12:42;;;;;;;67.27;30.53;;;-5.00;99.90;;;;;;5145628;28;20580;-74
2021/03/10 05:15:14;;;;;;;70.87;31.27;;;-5.00;99.90;;;;;;5145584;28;20200;-71
2021/03/10 05:21:31;;;;;;;67.13;29.93;;;-5.10;99.90;;;;;;5142047;28;20239;-74
2021/03/10 05:24:03;;;;;;;70.87;29.90;;;-5.10;99.90;;;;;;5149081;28;20203;-73
2021/03/10 05:26:37;;;;;;;60.57;29.97;;;-5.00;99.90;;;;;;5148684;28;20228;-74
2021/03/10 05:29:09;;;;;;;66.80;29.87;;;-5.00;99.90;;;;;;5148721;28;20550;-72
2021/03/10 05:31:41;;;;;;;63.97;28.63;;;-4.90;99.90;;;;;;5148945;28;20196;-73
2021/03/10 05:37:58;;;;;;;64.33;28.83;;;-4.80;99.90;;;;;;5148624;28;20255;-73
2021/03/10 05:40:32;;;;;;;61.10;28.80;;;-4.70;99.90;;;;;;5148824;28;20200;-72
2021/03/10 05:43:05;;;;;;;56.30;26.77;;;-4.60;99.90;;;;;;5148458;28;20202;-73
2021/03/10 05:45:37;;;;;;;52.43;25.00;;;-4.60;99.90;;;;;;5148785;28;20196;-72
2021/03/10 05:48:09;;;;;;;50.60;25.80;;;-4.50;99.90;;;;;;5148215;28;20216;-73
2021/03/10 05:50:40;;;;;;;46.67;23.73;;;-4.50;99.90;;;;;;5148263;28;20308;-72
2021/03/10 05:53:15;;;;;;;48.63;24.47;;;-4.40;99.90;;;;;;5148496;28;20226;-72
2021/03/10 05:55:47;;;;;;;54.40;24.77;;;-4.30;99.90;;;;;;5148508;28;20196;-72
2021/03/10 05:58:19;;;;;;;56.67;25.60;;;-4.20;99.90;;;;;;5148064;28;20643;-71
2021/03/10 06:00:50;;;;;;;53.43;25.53;;;-4.10;99.90;;;;;;5148096;28;20201;-74
2021/03/10 06:03:22;;;;;;;58.67;28.13;;;-4.00;99.90;;;;;;5148558;28;20201;-72
2021/03/10 06:06:05;;;;;;;66.33;28.90;;;-3.80;99.90;;;;;;5148891;28;20247;-72
2021/03/10 06:08:36;;;;;;;59.97;28.27;;;-3.70;99.90;;;;;;5148489;28;20259;-72
2021/03/10 06:11:08;;;;;;;63.53;27.47;;;-3.60;99.90;;;;;;5148307;28;20220;-69
2021/03/10 06:13:44;;;;;;;63.70;29.13;;;-3.50;99.90;;;;;;5148203;28;20227;-70
2021/03/10 06:16:22;;;;;;;67.67;30.93;;;-3.40;99.90;;;;;;5148128;28;20192;-69
2021/03/10 06:19:05;;;;;;;73.63;33.07;;;-3.40;99.90;;;;;;5147796;28;20201;-70
2021/03/10 06:21:48;;;;;;;71.93;32.50;;;-3.30;99.90;;;;;;5147569;28;20246;-70
2021/03/10 06:24:31;;;;;;;70.80;31.57;;;-3.20;99.90;;;;;;5147929;28;20651;-69
2021/03/10 06:27:03;;;;;;;65.87;31.20;;;-3.20;99.90;;;;;;5147904;28;20224;-69
2021/03/10 06:29:35;;;;;;;70.20;32.67;;;-3.10;99.90;;;;;;5147078;28;20199;-69
2021/03/10 06:32:09;;;;;;;73.10;31.93;;;-3.00;99.90;;;;;;5147276;28;20204;-69
2021/03/10 06:34:45;;;;;;;70.10;32.47;;;-2.90;99.90;;;;;;5147699;28;20556;-69
2021/03/10 06:37:29;;;;;;;81.43;36.53;;;-2.80;99.90;;;;;;5147744;28;20602;-72
2021/03/10 06:40:09;;;;;;;79.50;36.37;;;-2.60;99.90;;;;;;5147921;28;20638;-74
2021/03/10 06:42:52;;;;;;;79.93;37.33;;;-1.50;99.90;;;;;;5147119;28;20206;-71
2021/03/10 06:45:31;;;;;;;78.60;36.57;;;0.00;99.90;;;;;;5162304;28;20193;-71
2021/03/10 06:48:03;;;;;;;79.67;35.77;;;1.80;99.90;;;;;;5147000;28;20223;-68
2021/03/10 06:50:36;;;;;;;85.00;39.70;;;3.60;99.90;;;;;;5147009;28;20189;-68
2021/03/10 06:53:08;;;;;;;74.77;35.77;;;5.20;99.90;;;;;;5147021;28;20211;-69
2021/03/10 06:55:41;;;;;;;76.33;36.77;;;6.60;99.90;;;;;;5147616;28;20192;-68
2021/03/10 06:58:24;;;;;;;61.93;33.33;;;7.70;99.90;;;;;;5147133;28;20203;-71
2021/03/10 07:01:02;;;;;;;67.47;37.13;;;8.20;99.90;;;;;;5145698;28;20203;-69
2021/03/10 07:07:30;;;;;;;60.80;36.23;;;9.10;99.90;;;;;;5146767;28;20258;-71
2021/03/10 07:10:14;;;;;;;61.47;34.23;;;10.00;99.90;;;;;;5145251;28;20224;-72
2021/03/10 07:12:47;;;;;;;63.10;35.00;;;10.50;99.90;;;;;;5145376;28;20295;-71
2021/03/10 07:15:19;;;;;;;61.27;33.57;;;10.80;99.10;;;;;;5143092;28;20196;-70
2021/03/10 07:17:51;;;;;;;60.42;34.50;;;11.10;97.60;;;;;;5145477;28;20504;-71
2021/03/10 07:25:22;;;;;;;66.47;34.63;;;10.40;96.10;;;;;;5146402;28;20195;-81
2021/03/10 07:28:13;;;;;;;61.30;32.50;;;10.00;96.00;;;;;;5145847;28;20231;-71
2021/03/10 07:30:47;;;;;;;63.13;33.53;;;9.70;96.00;;;;;;5144816;28;20196;-72
2021/03/10 07:33:21;;;;;;;58.50;32.53;;;9.20;96.20;;;;;;5145839;28;20196;-73
2021/03/10 07:39:48;;;;;;;55.77;28.20;;;8.00;98.40;;;;;;5145628;28;20191;-71
2021/03/10 07:42:20;;;;;;;51.80;25.27;;;7.20;99.40;;;;;;5145617;28;20196;-71
2021/03/10 07:44:56;;;;;;;48.00;23.97;;;6.50;99.70;;;;;;5160747;28;20199;-73
2021/03/10 07:47:28;;;;;;;49.83;22.97;;;6.20;99.90;;;;;;5145809;28;20235;-73
2021/03/10 07:50:01;;;;;;;40.40;20.70;;;5.90;99.90;;;;;;5146579;28;20197;-74
2021/03/10 07:52:33;;;;;;;40.17;18.67;;;5.50;99.90;;;;;;5146898;28;20202;-74
2021/03/10 07:55:06;;;;;;;43.17;18.53;;;5.30;99.90;;;;;;5146417;28;20192;-75
2021/03/10 07:57:50;;;;;;;35.23;18.47;;;5.20;99.90;;;;;;5145778;28;20200;-73
2021/03/10 08:00:38;;;;;;;39.83;17.10;;;4.90;99.90;;;;;;5146233;28;20208;-75
2021/03/10 08:03:10;;;;;;;42.47;19.10;;;4.60;99.90;;;;;;5146616;28;20202;-76
2021/03/10 08:05:42;;;;;;;41.43;19.03;;;4.40;99.90;;;;;;5160940;28;20197;-76
2021/03/10 08:08:14;;;;;;;37.93;18.40;;;4.30;99.90;;;;;;5159501;28;20705;-77
2021/03/10 08:11:17;;;;;;;41.03;19.60;;;4.10;99.90;;;;;;5146204;28;20196;-81
2021/03/10 08:13:58;;;;;;;39.90;19.60;;;3.90;99.90;;;;;;5148828;28;20196;-77
2021/03/10 08:16:40;;;;;;;43.13;19.53;;;3.80;99.90;;;;;;5148109;28;20629;-80
2021/03/10 08:23:08;;;;;;;36.87;17.70;;;3.70;99.90;;;;;;5146337;28;20212;-80
2021/03/10 08:25:40;;;;;;;43.90;18.23;;;3.80;99.90;;;;;;5147848;28;20207;-79
2021/03/10 08:28:15;;;;;;;33.43;18.23;;;3.70;99.90;;;;;;5147482;28;20597;-79
2021/03/10 08:30:47;;;;;;;32.40;16.53;;;3.90;99.90;;;;;;5147947;28;20200;-80
2021/03/10 08:33:25;;;;;;;28.20;15.50;;;4.00;99.90;;;;;;5142669;28;20232;-71
2021/03/10 08:39:58;;;;;;;30.27;16.17;;;4.20;99.90;;;;;;5114990;28;20184;-76
2021/03/10 08:42:52;;;;;;;32.07;16.80;;;4.20;99.90;;;;;;5065788;28;20774;-71
2021/03/10 08:45:47;;;;;;;30.47;16.20;;;4.20;99.90;;;;;;5113269;28;20193;-71
2021/03/10 08:48:45;;;;;;;28.77;15.20;;;4.30;99.90;;;;;;5058027;28;20276;-72
2021/03/10 08:51:30;;;;;;;30.63;14.23;;;4.30;99.90;;;;;;5048315;29;20301;-73
2021/03/10 08:54:05;;;;;;;28.33;14.50;;;4.20;99.90;;;;;;5086107;29;20217;-75
2021/03/10 08:56:52;;;;;;;26.27;14.47;;;4.20;99.90;;;;;;5086057;29;20202;-73
2021/03/10 08:59:34;;;;;;;25.77;13.07;;;4.10;99.90;;;;;;5085988;29;20249;-75
2021/03/10 09:02:06;;;;;;;23.43;12.83;;;4.10;99.90;;;;;;5087168;29;20195;-74
2021/03/10 09:08:33;;;;;;;27.07;12.90;;;4.20;99.90;;;;;;5087804;29;20211;-74
2021/03/10 09:11:05;;;;;;;23.60;12.07;;;4.30;99.90;;;;;;5087658;29;20403;-78
2021/03/10 09:13:37;;;;;;;28.83;13.93;;;4.20;99.90;;;;;;5087627;29;20201;-76
2021/03/10 09:16:10;;;;;;;27.10;13.80;;;4.10;99.90;;;;;;5087835;29;20660;-72
2021/03/10 09:18:41;;;;;;;26.33;13.63;;;4.10;99.90;;;;;;5087660;29;20635;-64
2021/03/10 09:25:10;;;;;;;25.63;13.17;;;3.90;99.90;;;;;;5081280;29;20265;-70
2021/03/10 09:27:42;;;;;;;28.30;13.60;;;4.00;99.90;;;;;;5087433;29;20326;-73
2021/03/10 09:30:28;;;;;;;26.53;14.07;;;4.10;99.90;;;;;;5087589;29;20249;-76
2021/03/10 09:33:00;;;;;;;26.87;13.33;;;4.10;99.90;;;;;;5087242;29;20213;-76
2021/03/10 09:39:27;;;;;;;20.90;12.20;;;4.30;99.90;;;;;;5087210;29;20178;-76
2021/03/10 09:42:04;;;;;;;20.00;10.73;;;4.40;99.90;;;;;;5087209;29;20294;-76
2021/03/10 09:44:50;;;;;;;19.07;11.20;;;4.50;99.90;;;;;;5086891;29;20198;-76
2021/03/10 09:47:24;;;;;;;17.50;9.90;;;4.40;99.90;;;;;;5086301;29;20258;-76
2021/03/10 09:49:59;;;;;;;19.97;10.23;;;4.30;99.90;;;;;;5086431;29;20209;-75
2021/03/10 09:52:34;;;;;;;16.37;10.73;;;4.20;99.90;;;;;;5086344;29;20285;-72
2021/03/10 09:55:09;;;;;;;18.60;10.13;;;4.00;99.90;;;;;;5086741;29;20198;-70
2021/03/10 09:57:41;;;;;;;18.63;10.33;;;3.90;99.90;;;;;;5085929;29;20217;-76
2021/03/10 10:00:32;;;;;;;16.73;9.87;;;3.90;99.90;;;;;;5086742;29;20206;-73
2021/03/10 10:03:04;;;;;;;21.33;11.33;;;3.90;99.90;;;;;;5087228;29;20681;-76
2021/03/10 10:05:38;;;;;;;20.97;11.13;;;4.00;99.90;;;;;;5087228;29;20194;-75
2021/03/10 10:08:11;;;;;;;18.33;11.57;;;4.00;99.90;;;;;;5087079;29;20321;-76
2021/03/10 10:10:42;;;;;;;21.90;12.10;;;4.00;99.90;;;;;;5087344;29;20571;-79
2021/03/10 10:13:18;;;;;;;17.80;10.37;;;3.90;99.90;;;;;;5098814;28;20212;-78
2021/03/10 10:15:50;;;;;;;23.40;11.13;;;3.80;99.90;;;;;;5149238;28;20238;-75
2021/03/10 10:18:23;;;;;;;19.70;10.70;;;3.80;99.90;;;;;;5149282;28;20210;-76
2021/03/10 10:20:55;;;;;;;17.47;10.83;;;3.80;99.90;;;;;;5149530;28;20204;-76
2021/03/10 10:23:26;;;;;;;21.83;11.03;;;3.90;99.90;;;;;;5147151;28;20275;-74
2021/03/10 10:25:58;;;;;;;20.83;10.80;;;4.00;99.90;;;;;;5147486;28;20208;-80
2021/03/10 10:28:29;;;;;;;19.37;11.10;;;4.00;99.90;;;;;;5147262;28;20304;-76
2021/03/10 10:31:01;;;;;;;19.47;11.47;;;4.00;99.90;;;;;;5147488;28;20549;-73
2021/03/10 10:33:32;;;;;;;22.43;11.73;;;4.10;99.90;;;;;;5146885;28;20215;-72
2021/03/10 10:36:05;;;;;;;27.17;12.03;;;4.00;99.90;;;;;;5147622;28;20220;-73
2021/03/10 10:38:36;;;;;;;24.70;11.87;;;4.00;99.90;;;;;;5147283;28;20196;-75
2021/03/10 10:41:08;;;;;;;26.30;12.67;;;3.90;99.90;;;;;;5146965;28;20258;-73
2021/03/10 10:43:39;;;;;;;23.87;12.47;;;3.90;99.90;;;;;;5146853;28;20287;-72
2021/03/10 10:46:11;;;;;;;20.07;12.23;;;3.80;99.90;;;;;;5147427;28;20632;-75
2021/03/10 10:48:43;;;;;;;19.67;12.07;;;3.90;99.90;;;;;;5146689;28;20292;-74
2021/03/10 10:51:16;;;;;;;21.80;13.63;;;4.00;99.90;;;;;;5147090;28;20644;-72
2021/03/10 10:53:49;;;;;;;22.30;11.90;;;4.10;99.90;;;;;;5146838;28;20199;-74
2021/03/10 10:56:20;;;;;;;22.20;11.93;;;4.10;99.90;;;;;;5147092;28;20219;-71
2021/03/10 10:58:52;;;;;;;19.47;10.80;;;4.00;99.90;;;;;;5146514;28;20196;-73
2021/03/10 11:01:23;;;;;;;18.27;9.93;;;4.00;99.30;;;;;;5146782;28;20613;-72
2021/03/10 11:03:55;;;;;;;20.53;11.40;;;3.90;99.90;;;;;;5146524;28;20192;-74
2021/03/10 11:06:27;;;;;;;20.37;10.83;;;4.00;99.90;;;;;;5146519;28;20670;-72
2021/03/10 11:08:58;;;;;;;17.40;9.47;;;4.10;99.90;;;;;;5146497;28;20205;-74
2021/03/10 11:11:30;;;;;;;17.80;9.90;;;4.10;99.90;;;;;;5146149;28;20207;-73
2021/03/10 11:14:03;;;;;;;18.70;10.77;;;4.10;98.70;;;;;;5145729;28;20192;-73
2021/03/10 11:16:34;;;;;;;24.87;10.03;;;4.10;98.00;;;;;;5146433;28;20635;-72
2021/03/10 11:19:06;;;;;;;20.10;10.67;;;4.20;98.80;;;;;;5146351;28;20200;-72
2021/03/10 11:21:37;;;;;;;19.13;11.13;;;4.30;99.00;;;;;;5146522;28;20706;-69
2021/03/10 11:24:11;;;;;;;17.87;10.40;;;4.50;99.20;;;;;;5146226;28;20246;-71
2021/03/10 11:26:43;;;;;;;20.27;10.03;;;4.60;99.10;;;;;;5146650;28;20226;-66
2021/03/10 11:29:14;;;;;;;17.30;9.90;;;4.70;98.90;;;;;;5146580;28;20204;-70
2021/03/10 11:31:46;;;;;;;18.00;10.13;;;4.80;98.50;;;;;;5146263;28;20197;-66
2021/03/10 11:34:17;;;;;;;19.27;11.60;;;4.80;97.40;;;;;;5146285;28;20203;-66
2021/03/10 11:36:50;;;;;;;17.90;10.00;;;4.90;97.70;;;;;;5146143;28;20666;-70
2021/03/10 11:39:21;;;;;;;15.53;9.37;;;4.80;98.00;;;;;;5146086;28;20533;-70
2021/03/10 11:41:53;;;;;;;17.23;10.53;;;4.90;98.10;;;;;;5145699;28;20203;-66
2021/03/10 11:44:24;;;;;;;18.97;10.60;;;4.80;97.00;;;;;;5146247;28;20203;-70
2021/03/10 11:46:56;;;;;;;23.13;10.67;;;4.90;97.00;;;;;;5145873;28;20224;-68
2021/03/10 11:49:27;;;;;;;17.57;9.93;;;4.90;97.50;;;;;;5145956;28;20203;-67
2021/03/10 11:51:59;;;;;;;16.37;9.83;;;5.00;96.90;;;;;;5145879;28;20665;-67
2021/03/10 11:54:31;;;;;;;17.87;10.90;;;5.10;96.80;;;;;;5146255;28;20216;-70
2021/03/10 11:57:04;;;;;;;17.63;9.83;;;5.10;96.70;;;;;;5146568;28;20227;-71
2021/03/10 11:59:35;;;;;;;16.27;9.40;;;5.10;97.20;;;;;;5160722;28;20214;-69
2021/03/10 12:02:08;;;;;;;17.17;9.50;;;5.10;97.10;;;;;;5145768;28;20203;-76
2021/03/10 12:04:40;;;;;;;19.97;10.20;;;5.10;97.10;;;;;;5146287;28;20192;-73
2021/03/10 12:07:15;;;;;;;17.57;9.67;;;5.00;95.70;;;;;;5146062;28;20605;-71
2021/03/10 12:09:46;;;;;;;13.33;8.30;;;4.90;96.00;;;;;;5146204;28;20197;-72
2021/03/10 12:12:19;;;;;;;18.33;8.47;;;4.80;94.80;;;;;;5146731;28;20296;-71
2021/03/10 12:14:50;;;;;;;15.23;8.10;;;4.60;95.40;;;;;;5146615;28;20196;-72
2021/03/10 12:17:23;;;;;;;14.70;8.60;;;4.50;97.10;;;;;;5147126;28;20550;-70
2021/03/10 12:19:55;;;;;;;12.47;7.67;;;4.50;97.10;;;;;;5146500;28;20615;-69
2021/03/10 12:22:26;;;;;;;12.63;6.97;;;4.70;96.10;;;;;;5146926;28;20556;-68
2021/03/10 12:24:58;;;;;;;11.73;7.87;;;4.90;95.90;;;;;;5146733;28;20246;-68
2021/03/10 12:27:29;;;;;;;13.17;7.60;;;5.00;96.40;;;;;;5149819;28;20226;-70
2021/03/10 12:30:02;;;;;;;15.33;7.87;;;5.10;95.40;;;;;;5150393;28;20200;-69
2021/03/10 12:32:36;;;;;;;16.70;7.27;;;5.10;96.00;;;;;;5144552;28;20283;-70
2021/03/10 12:35:09;;;;;;;12.87;7.60;;;5.20;96.60;;;;;;5150491;28;20562;-73
2021/03/10 12:37:41;;;;;;;13.87;7.57;;;5.20;95.50;;;;;;5149375;28;20259;-71
2021/03/10 12:40:13;;;;;;;12.33;7.40;;;4.90;93.90;;;;;;5149788;28;20200;-70
2021/03/10 12:42:45;;;;;;;12.20;7.10;;;4.80;93.40;;;;;;5147882;28;20287;-70
2021/03/10 12:45:17;;;;;;;13.37;7.43;;;4.70;94.00;;;;;;5149915;28;20193;-71
2021/03/10 12:47:50;;;;;;;14.40;7.33;;;4.70;94.20;;;;;;5149815;28;20619;-70
2021/03/10 12:50:22;;;;;;;13.43;8.53;;;4.70;94.30;;;;;;5150460;28;20255;-70
2021/03/10 12:52:53;;;;;;;15.27;8.93;;;4.70;95.30;;;;;;5150479;28;20591;-71
2021/03/10 12:55:25;;;;;;;18.97;9.57;;;4.80;96.50;;;;;;5150558;28;20203;-70
2021/03/10 12:57:56;;;;;;;16.70;8.53;;;4.90;95.40;;;;;;5150488;28;20223;-70
2021/03/10 13:00:28;;;;;;;18.77;9.40;;;5.50;94.60;;;;;;5150823;28;20205;-70
2021/03/10 13:02:59;;;;;;;16.67;10.40;;;6.00;94.60;;;;;;5151168;28;20197;-73
2021/03/10 13:09:27;;;;;;;18.73;10.80;;;5.80;96.10;;;;;;5150419;28;20250;-72
2021/03/10 13:11:59;;;;;;;19.47;10.83;;;5.60;96.20;;;;;;5150355;28;20200;-70
2021/03/10 13:14:32;;;;;;;17.23;10.70;;;5.50;97.10;;;;;;5150281;28;20234;-67
2021/03/10 13:17:04;;;;;;;23.87;10.73;;;5.40;96.40;;;;;;5149264;28;20219;-70
2021/03/10 13:19:36;;;;;;;17.80;9.90;;;5.40;96.70;;;;;;5149981;28;20197;-69
2021/03/10 13:26:05;;;;;;;20.13;10.30;;;5.40;96.40;;;;;;5144959;28;20282;-72
2021/03/10 13:28:37;;;;;;;15.33;9.80;;;5.10;96.80;;;;;;5150367;28;20271;-69
2021/03/10 13:31:09;;;;;;;16.50;10.20;;;5.00;96.20;;;;;;5149515;28;20204;-71
2021/03/10 13:33:41;;;;;;;19.07;10.33;;;5.00;96.30;;;;;;5165114;28;20611;-68
2021/03/10 13:39:59;;;;;;;18.57;10.60;;;5.00;96.50;;;;;;5149152;28;20176;-68
2021/03/10 13:42:31;;;;;;;18.20;10.40;;;5.00;96.90;;;;;;5149575;28;20203;-71
2021/03/10 13:45:04;;;;;;;19.30;11.83;;;5.00;97.10;;;;;;5149543;28;20287;-68
2021/03/10 13:47:36;;;;;;;21.23;11.37;;;4.80;97.70;;;;;;5149231;28;20234;-71
2021/03/10 13:50:09;;;;;;;21.20;11.23;;;4.90;98.20;;;;;;5149283;28;20197;-70
2021/03/10 13:56:26;;;;;;;19.47;10.83;;;5.10;97.80;;;;;;5149854;28;20292;-71
2021/03/10 13:58:58;;;;;;;19.43;11.73;;;5.30;96.90;;;;;;5149355;28;20211;-71
2021/03/10 14:01:30;;;;;;;17.47;9.87;;;5.20;96.80;;;;;;5150118;28;20196;-72
2021/03/10 14:04:01;;;;;;;18.17;11.10;;;5.30;96.30;;;;;;5151010;28;20200;-73
2021/03/10 14:06:33;;;;;;;16.60;10.37;;;5.40;96.50;;;;;;5149275;28;20193;-71
2021/03/10 14:09:05;;;;;;;20.40;10.43;;;5.30;96.60;;;;;;5149009;28;20200;-75
2021/03/10 14:11:36;;;;;;;14.60;9.30;;;5.30;96.50;;;;;;5149704;28;20203;-72
2021/03/10 14:14:08;;;;;;;13.93;9.10;;;5.20;95.80;;;;;;5150337;28;20267;-74
2021/03/10 14:16:40;;;;;;;14.67;8.90;;;5.20;95.40;;;;;;5145802;28;20302;-72